Time;durP1;ratioP1;P1;durP2;ratioP2;P2;SDS_P1;SDS_P2;PMS_P1;PMS_P2;Temp;Humidity;BMP_temperature;BMP_pressure;BME280_temperature;BME280_humidity;BME280_pressure;Samples;Min_cycle;Max_cycle;Signal;HPM_P1;HPM_P2
2022/05/20 00:00:54;;;;;;;14.02;8.90;;;19.70;99.90;;;;;;4155962;28;20034;-70
2022/05/20 00:02:54;;;;;;;10.27;7.75;;;19.70;99.90;;;;;;4159112;28;20488;-71
2022/05/20 00:04:55;;;;;;;11.85;8.07;;;19.60;99.90;;;;;;4158104;28;20038;-71
2022/05/20 00:06:55;;;;;;;11.20;8.10;;;19.60;99.90;;;;;;4156341;28;20374;-70
2022/05/20 00:08:56;;;;;;;13.32;9.13;;;19.50;99.90;;;;;;4156778;28;20575;-70
2022/05/20 00:10:57;;;;;;;12.38;8.57;;;19.40;99.90;;;;;;4158191;28;20036;-71
2022/05/20 00:12:59;;;;;;;9.27;7.72;;;19.40;99.90;;;;;;4157805;28;20053;-71
2022/05/20 00:15:00;;;;;;;;;;;19.30;99.90;;;;;;4157120;28;20492;-71
2022/05/20 00:17:05;;;;;;;11.60;7.97;;;19.20;99.90;;;;;;4152246;28;19913;-70
2022/05/20 00:19:07;;;;;;;11.68;8.43;;;19.20;99.90;;;;;;4157565;28;20120;-71
2022/05/20 00:21:08;;;;;;;14.10;9.90;;;19.20;99.90;;;;;;4154022;28;20041;-70
2022/05/20 00:23:09;;;;;;;14.70;10.55;;;19.10;99.90;;;;;;4153589;28;20083;-70
2022/05/20 00:27:30;;;;;;;13.15;10.13;;;19.10;99.90;;;;;;4158726;28;20044;-70
2022/05/20 00:29:31;;;;;;;16.27;10.88;;;19.00;99.90;;;;;;4157747;28;20389;-70
2022/05/20 00:31:31;;;;;;;12.82;9.77;;;19.00;99.90;;;;;;4153297;28;20092;-71
2022/05/20 00:33:34;;;;;;;11.95;9.40;;;19.00;99.90;;;;;;4152560;28;20050;-70
2022/05/20 00:35:35;;;;;;;13.43;9.20;;;18.90;99.90;;;;;;4153667;28;20083;-71
2022/05/20 00:37:36;;;;;;;12.32;9.40;;;18.90;99.90;;;;;;4154207;28;20037;-70
2022/05/20 00:39:37;;;;;;;11.35;8.82;;;18.90;99.90;;;;;;4154278;28;20046;-71
2022/05/20 00:41:38;;;;;;;15.05;9.23;;;18.90;99.90;;;;;;4155464;28;20040;-71
2022/05/20 00:43:42;;;;;;;12.18;9.55;;;18.90;99.90;;;;;;4150266;28;20460;-71
2022/05/20 00:45:44;;;;;;;12.68;9.45;;;18.90;99.90;;;;;;4156312;28;20030;-71
2022/05/20 00:47:45;;;;;;;10.80;8.60;;;18.90;99.90;;;;;;4154971;28;20113;-69
2022/05/20 00:49:52;;;;;;;12.48;9.35;;;18.90;99.90;;;;;;4151011;28;20026;-70
2022/05/20 00:51:53;;;;;;;13.48;10.05;;;18.80;99.90;;;;;;4154569;28;20052;-71
2022/05/20 00:54:07;;;;;;;15.30;10.93;;;18.80;99.90;;;;;;4156461;28;20037;-70
2022/05/20 00:56:12;;;;;;;13.65;11.13;;;18.80;99.90;;;;;;4154359;28;20065;-70
2022/05/20 00:58:21;;;;;;;16.67;11.75;;;18.70;99.90;;;;;;4152459;28;20385;-71
2022/05/20 01:00:25;;;;;;;13.38;9.80;;;18.70;99.90;;;;;;4158083;28;20029;-71
2022/05/20 01:02:27;;;;;;;11.85;9.63;;;18.70;99.90;;;;;;4152830;28;20056;-70
2022/05/20 01:04:29;;;;;;;13.48;9.75;;;18.60;99.90;;;;;;4154440;28;20116;-70
2022/05/20 01:06:30;;;;;;;12.50;9.45;;;18.60;99.90;;;;;;4153807;28;20042;-70
2022/05/20 01:08:32;;;;;;;13.55;10.52;;;18.60;99.90;;;;;;4153361;28;20037;-70
2022/05/20 01:10:34;;;;;;;15.18;11.13;;;18.60;99.90;;;;;;4154740;28;20030;-70
2022/05/20 01:12:35;;;;;;;14.80;11.63;;;18.60;99.90;;;;;;4158277;28;20087;-70
2022/05/20 01:14:36;;;;;;;13.63;10.98;;;18.60;99.90;;;;;;4155252;28;20025;-70
2022/05/20 01:16:37;;;;;;;16.52;10.98;;;18.60;99.90;;;;;;4157961;28;20068;-69
2022/05/20 01:18:41;;;;;;;12.68;9.63;;;18.60;99.90;;;;;;4151915;28;20485;-71
2022/05/20 01:20:46;;;;;;;15.32;12.05;;;18.60;99.90;;;;;;4147074;28;20041;-70
2022/05/20 01:22:54;;;;;;;15.73;11.48;;;18.60;99.90;;;;;;4155661;28;20068;-71
2022/05/20 01:24:55;;;;;;;17.67;11.40;;;18.60;99.90;;;;;;4150284;28;20026;-71
2022/05/20 01:26:55;;;;;;;14.75;11.82;;;18.60;99.90;;;;;;4150611;28;20040;-70
2022/05/20 01:28:56;;;;;;;16.40;11.90;;;18.60;99.90;;;;;;4156685;28;20046;-71
2022/05/20 01:31:19;;;;;;;14.18;10.32;;;18.60;99.90;;;;;;4149502;28;20037;-70
2022/05/20 01:33:32;;;;;;;13.40;8.50;;;18.60;99.90;;;;;;4152199;28;20029;-70
2022/05/20 01:35:38;;;;;;;13.00;9.90;;;18.50;99.90;;;;;;4156113;28;20037;-71
2022/05/20 01:37:39;;;;;;;15.35;10.82;;;18.40;99.90;;;;;;4158711;28;20083;-71
2022/05/20 01:39:42;;;;;;;12.95;10.13;;;18.40;99.90;;;;;;4152522;28;20096;-71
2022/05/20 01:42:14;;;;;;;12.23;9.90;;;18.30;99.90;;;;;;4158054;28;20132;-70
2022/05/20 01:44:39;;;;;;;13.50;10.07;;;18.30;99.90;;;;;;4147008;28;20385;-70
2022/05/20 01:47:02;;;;;;;13.15;10.40;;;18.30;99.90;;;;;;4151535;28;20119;-71
2022/05/20 01:49:02;;;;;;;;;;;18.20;99.90;;;;;;4159068;28;20433;-71
2022/05/20 01:51:09;;;;;;;12.10;9.30;;;18.20;99.90;;;;;;4170949;28;19924;-70
2022/05/20 01:53:25;;;;;;;13.38;10.52;;;18.20;99.90;;;;;;4152127;28;20097;-71
2022/05/20 01:55:49;;;;;;;14.40;10.57;;;18.20;99.90;;;;;;4152302;28;20104;-70
2022/05/20 01:58:11;;;;;;;14.20;10.18;;;18.20;99.90;;;;;;4154437;28;20021;-70
2022/05/20 02:00:17;;;;;;;12.82;9.63;;;18.20;99.90;;;;;;4155546;28;20061;-71
2022/05/20 02:02:26;;;;;;;11.63;9.80;;;18.20;99.90;;;;;;4153574;28;20184;-70
2022/05/20 02:04:43;;;;;;;11.52;8.82;;;18.20;99.90;;;;;;4152437;28;20172;-71
2022/05/20 02:06:50;;;;;;;12.73;9.57;;;18.20;99.90;;;;;;4152639;28;20480;-70
2022/05/20 02:08:57;;;;;;;13.00;9.68;;;18.10;99.90;;;;;;4155093;28;20485;-70
2022/05/20 02:11:10;;;;;;;11.90;10.02;;;18.10;99.90;;;;;;4149486;28;20431;-70
2022/05/20 02:13:15;;;;;;;13.15;10.38;;;18.10;99.90;;;;;;4154013;28;20057;-71
2022/05/20 02:15:25;;;;;;;10.07;8.25;;;18.10;99.90;;;;;;4154551;28;20040;-70
2022/05/20 02:17:32;;;;;;;10.13;8.00;;;18.00;99.90;;;;;;4157405;28;20048;-70
2022/05/20 02:19:56;;;;;;;11.07;8.27;;;18.00;99.90;;;;;;4150135;28;20501;-70
2022/05/20 02:22:01;;;;;;;11.13;8.18;;;18.00;99.90;;;;;;4147009;28;20100;-69
2022/05/20 02:24:06;;;;;;;11.32;8.73;;;17.90;99.90;;;;;;4154837;28;20044;-70
2022/05/20 02:26:10;;;;;;;11.93;9.65;;;17.90;99.90;;;;;;4153929;28;20039;-70
2022/05/20 02:28:29;;;;;;;10.88;8.50;;;17.90;99.90;;;;;;4158236;28;20061;-71
2022/05/20 02:30:33;;;;;;;12.63;9.57;;;17.90;99.90;;;;;;4155367;28;20038;-71
2022/05/20 02:32:44;;;;;;;14.38;9.82;;;17.80;99.90;;;;;;4157179;28;20038;-71
2022/05/20 02:34:45;;;;;;;11.88;9.18;;;17.90;99.90;;;;;;4156705;28;20107;-70
2022/05/20 02:36:46;;;;;;;13.35;9.85;;;17.80;99.90;;;;;;4160726;28;20041;-70
2022/05/20 02:38:46;;;;;;;12.43;9.55;;;17.90;99.90;;;;;;4159745;28;20030;-70
2022/05/20 02:40:50;;;;;;;10.38;8.10;;;17.80;99.90;;;;;;4156546;28;20084;-70
2022/05/20 02:42:52;;;;;;;15.88;9.45;;;17.80;99.90;;;;;;4160625;28;20103;-70
2022/05/20 02:44:53;;;;;;;12.88;8.85;;;17.80;99.90;;;;;;4156501;28;20052;-70
2022/05/20 02:46:53;;;;;;;11.98;9.02;;;17.80;99.90;;;;;;4158221;28;20042;-70
2022/05/20 02:48:54;;;;;;;11.80;9.80;;;17.80;99.90;;;;;;4157633;28;20061;-70
2022/05/20 02:50:58;;;;;;;13.57;9.07;;;17.80;99.90;;;;;;4156920;28;20410;-70
2022/05/20 02:53:00;;;;;;;11.35;8.88;;;17.80;99.90;;;;;;4158371;28;20124;-70
2022/05/20 02:55:00;;;;;;;14.47;9.67;;;17.70;99.90;;;;;;4157003;28;20091;-70
2022/05/20 02:57:01;;;;;;;13.77;9.48;;;17.70;99.90;;;;;;4156782;28;20072;-70
2022/05/20 03:06:00;;;;;;;11.63;9.25;;;17.40;99.90;;;;;;4157176;28;20034;-67
2022/05/20 03:08:01;;;;;;;9.63;8.07;;;17.40;99.90;;;;;;4156706;28;20060;-67
2022/05/20 03:10:02;;;;;;;12.05;9.35;;;17.30;99.90;;;;;;4156676;28;20471;-69
2022/05/20 03:12:03;;;;;;;11.90;9.27;;;17.30;99.90;;;;;;4160220;28;20455;-67
2022/05/20 03:14:04;;;;;;;15.18;11.25;;;17.30;99.90;;;;;;4160575;28;20373;-67
2022/05/20 03:16:04;;;;;;;15.20;10.30;;;17.30;99.90;;;;;;4158737;28;20041;-67
2022/05/20 03:18:06;;;;;;;13.15;10.02;;;17.30;99.90;;;;;;4158729;28;20033;-67
2022/05/20 03:20:11;;;;;;;14.05;9.73;;;17.30;99.90;;;;;;4153113;28;20491;-68
2022/05/20 03:22:12;;;;;;;13.52;10.30;;;17.20;99.90;;;;;;4155385;28;20034;-68
2022/05/20 03:24:13;;;;;;;16.05;9.98;;;17.20;99.90;;;;;;4159338;28;20033;-67
2022/05/20 03:26:15;;;;;;;11.70;9.68;;;17.20;99.90;;;;;;4158332;28;20589;-68
2022/05/20 03:28:16;;;;;;;14.32;9.80;;;17.20;99.90;;;;;;4157640;28;20468;-67
2022/05/20 03:30:17;;;;;;;14.00;10.65;;;17.20;99.90;;;;;;4158751;28;20086;-67
2022/05/20 03:32:18;;;;;;;12.82;9.63;;;17.30;99.90;;;;;;4159745;28;20567;-68
2022/05/20 03:34:19;;;;;;;13.40;10.07;;;17.30;99.90;;;;;;4155108;28;20555;-67
2022/05/20 03:36:21;;;;;;;10.15;8.68;;;17.30;99.90;;;;;;4157662;28;20030;-68
2022/05/20 03:38:21;;;;;;;11.93;9.35;;;17.30;99.90;;;;;;4159709;28;20079;-67
2022/05/20 03:40:22;;;;;;;11.15;8.90;;;17.30;99.90;;;;;;4154085;28;20037;-67
2022/05/20 03:42:24;;;;;;;12.30;8.43;;;17.30;99.90;;;;;;4157472;28;20029;-67
2022/05/20 03:44:24;;;;;;;10.60;7.80;;;17.30;99.90;;;;;;4158154;28;20125;-68
2022/05/20 03:46:26;;;;;;;8.77;7.78;;;17.20;99.90;;;;;;4155492;28;20069;-67
2022/05/20 03:48:27;;;;;;;10.10;8.05;;;17.30;99.90;;;;;;4158673;28;20037;-67
2022/05/20 03:50:28;;;;;;;10.45;8.18;;;17.20;99.90;;;;;;4159104;28;20099;-67
2022/05/20 03:52:28;;;;;;;15.90;10.10;;;17.20;99.90;;;;;;4158314;28;20045;-67
2022/05/20 03:54:32;;;;;;;12.85;9.48;;;17.20;99.90;;;;;;4155412;28;20473;-67
2022/05/20 03:56:33;;;;;;;11.82;9.10;;;17.20;99.90;;;;;;4156424;28;20447;-67
2022/05/20 03:58:34;;;;;;;11.40;9.35;;;17.20;99.90;;;;;;4156390;28;20037;-67
2022/05/20 04:03:00;;;;;;;14.00;10.25;;;17.10;99.90;;;;;;4137583;28;20040;-67
2022/05/20 04:05:01;;;;;;;14.15;9.95;;;17.10;99.90;;;;;;4156726;28;20041;-67
2022/05/20 04:07:12;;;;;;;13.57;9.77;;;17.10;99.90;;;;;;4158635;28;20038;-67
2022/05/20 04:09:12;;;;;;;14.82;10.50;;;17.10;99.90;;;;;;4158050;28;20053;-67
2022/05/20 04:11:13;;;;;;;12.90;10.23;;;17.10;99.90;;;;;;4157958;28;20447;-67
2022/05/20 04:13:14;;;;;;;13.57;10.15;;;17.00;99.90;;;;;;4158728;28;20063;-67
2022/05/20 04:15:15;;;;;;;12.88;10.13;;;17.00;99.90;;;;;;4154519;28;20061;-67
2022/05/20 04:17:16;;;;;;;12.40;10.02;;;17.00;99.90;;;;;;4156954;28;20503;-67
2022/05/20 04:19:16;;;;;;;14.05;10.48;;;17.00;99.90;;;;;;4159369;28;20045;-67
2022/05/20 04:21:17;;;;;;;13.75;10.60;;;17.00;99.90;;;;;;4158127;28;20033;-68
2022/05/20 04:23:20;;;;;;;14.45;10.75;;;17.00;99.90;;;;;;4156279;28;20038;-68
2022/05/20 04:25:20;;;;;;;14.15;9.95;;;17.10;99.90;;;;;;4153320;28;20029;-68
2022/05/20 04:27:22;;;;;;;12.95;8.57;;;17.10;99.90;;;;;;4155899;28;20038;-67
2022/05/20 04:29:22;;;;;;;11.85;9.10;;;17.10;99.90;;;;;;4158821;28;20083;-68
2022/05/20 04:31:23;;;;;;;12.57;8.25;;;17.10;99.90;;;;;;4156044;28;20037;-67
2022/05/20 04:33:25;;;;;;;11.60;9.48;;;17.00;99.90;;;;;;4155371;28;20037;-68
2022/05/20 04:35:25;;;;;;;14.73;9.27;;;17.00;99.90;;;;;;4155207;28;20061;-68
2022/05/20 04:37:27;;;;;;;11.40;8.52;;;17.00;99.90;;;;;;4156608;28;20115;-68
2022/05/20 04:39:28;;;;;;;13.15;9.05;;;17.00;99.90;;;;;;4157586;28;20041;-68
2022/05/20 04:48:26;;;;;;;11.75;8.40;;;17.20;99.90;;;;;;4160041;28;20037;-68
2022/05/20 04:50:27;;;;;;;12.05;9.30;;;17.20;99.90;;;;;;4153229;28;20114;-69
2022/05/20 04:52:28;;;;;;;15.35;11.25;;;17.20;99.90;;;;;;4159150;28;20582;-69
2022/05/20 04:56:48;;;;;;;15.38;11.45;;;17.10;99.90;;;;;;4148336;28;20030;-70
2022/05/20 04:58:48;;;;;;;14.20;10.85;;;17.10;99.90;;;;;;4154746;28;20121;-70
2022/05/20 05:00:49;;;;;;;15.60;11.57;;;17.10;99.90;;;;;;4156439;28;20087;-69
2022/05/20 05:02:51;;;;;;;13.50;10.43;;;17.10;99.90;;;;;;4153459;28;20120;-70
2022/05/20 05:04:51;;;;;;;14.75;11.02;;;17.20;99.90;;;;;;4157471;28;20029;-70
2022/05/20 05:06:52;;;;;;;12.43;10.02;;;17.20;99.90;;;;;;4153872;28;20065;-71
2022/05/20 05:08:53;;;;;;;11.82;9.60;;;17.30;99.90;;;;;;4157816;28;20097;-70
2022/05/20 05:10:54;;;;;;;12.65;9.77;;;17.30;99.90;;;;;;4151921;28;20380;-70
2022/05/20 05:12:55;;;;;;;14.48;10.55;;;17.30;99.90;;;;;;4154340;28;20029;-70
2022/05/20 05:14:56;;;;;;;12.20;10.13;;;17.40;99.90;;;;;;4160170;28;20503;-72
2022/05/20 05:16:56;;;;;;;12.70;10.00;;;17.40;99.90;;;;;;4154013;28;20030;-71
2022/05/20 05:18:57;;;;;;;14.35;11.13;;;17.50;99.90;;;;;;4156847;28;20463;-71
2022/05/20 05:20:58;;;;;;;15.30;11.90;;;17.50;99.90;;;;;;4156176;28;20480;-71
2022/05/20 05:23:00;;;;;;;16.50;12.63;;;17.50;99.90;;;;;;4157489;28;21545;-71
2022/05/20 05:25:01;;;;;;;17.17;12.80;;;17.50;99.90;;;;;;4154750;28;20041;-71
2022/05/20 05:27:03;;;;;;;19.20;14.00;;;17.50;99.90;;;;;;4154644;28;20318;-71
2022/05/20 05:29:04;;;;;;;18.33;13.65;;;17.40;99.90;;;;;;4154298;28;20046;-71
2022/05/20 05:31:05;;;;;;;19.55;13.25;;;17.40;99.90;;;;;;4151420;28;20044;-71
2022/05/20 05:33:05;;;;;;;19.63;14.57;;;17.40;99.90;;;;;;4153388;28;20042;-71
2022/05/20 05:35:09;;;;;;;23.25;15.95;;;17.40;99.90;;;;;;4157532;28;20029;-71
2022/05/20 05:37:10;;;;;;;24.85;17.35;;;17.40;99.90;;;;;;4155056;28;20115;-71
2022/05/20 05:39:11;;;;;;;28.60;19.15;;;17.60;99.90;;;;;;4156679;28;20033;-71
2022/05/20 05:41:12;;;;;;;25.17;18.40;;;17.60;99.90;;;;;;4153691;28;20061;-70
2022/05/20 05:43:13;;;;;;;26.45;18.33;;;17.70;99.90;;;;;;4152993;28;20548;-70
2022/05/20 05:45:16;;;;;;;27.35;19.35;;;17.70;99.90;;;;;;4153367;28;20058;-70
2022/05/20 05:47:17;;;;;;;26.48;18.20;;;17.80;99.90;;;;;;4152952;28;20069;-70
2022/05/20 05:49:18;;;;;;;28.35;19.55;;;17.90;99.90;;;;;;4157776;28;20044;-70
2022/05/20 05:51:18;;;;;;;27.58;19.23;;;17.90;99.90;;;;;;4157623;28;20041;-67
2022/05/20 05:53:21;;;;;;;25.25;19.23;;;18.00;99.90;;;;;;4158122;28;20026;-68
2022/05/20 05:55:22;;;;;;;30.85;20.25;;;18.10;99.90;;;;;;4156079;28;20095;-68
2022/05/20 05:57:22;;;;;;;28.45;19.27;;;18.10;99.90;;;;;;4156733;28;20041;-69
2022/05/20 05:59:23;;;;;;;31.15;20.23;;;18.10;99.90;;;;;;4154326;28;20400;-68
2022/05/20 06:01:23;;;;;;;27.73;19.77;;;18.20;99.90;;;;;;4153755;28;20037;-68
2022/05/20 06:03:24;;;;;;;34.78;22.92;;;18.40;99.90;;;;;;4145298;28;20263;-68
2022/05/20 06:05:25;;;;;;;31.58;22.73;;;18.50;99.90;;;;;;4154084;28;20041;-68
2022/05/20 06:07:26;;;;;;;28.33;20.80;;;18.70;99.90;;;;;;4154989;28;20081;-70
2022/05/20 06:09:27;;;;;;;30.80;20.70;;;19.00;99.90;;;;;;4156711;28;20480;-70
2022/05/20 06:11:27;;;;;;;26.92;19.38;;;19.10;99.90;;;;;;4158527;28;20084;-70
2022/05/20 06:13:29;;;;;;;25.70;19.75;;;19.40;99.90;;;;;;4157913;28;20567;-70
2022/05/20 06:15:30;;;;;;;23.40;17.23;;;19.60;99.90;;;;;;4154520;28;20085;-70
2022/05/20 06:17:32;;;;;;;26.17;16.58;;;19.90;99.90;;;;;;4160015;28;20071;-70
2022/05/20 06:19:33;;;;;;;21.67;16.58;;;20.30;99.90;;;;;;4159303;28;20048;-70
2022/05/20 06:21:33;;;;;;;23.60;16.02;;;20.70;99.90;;;;;;4155754;28;20041;-71
2022/05/20 06:23:34;;;;;;;20.33;14.35;;;21.00;99.90;;;;;;4153530;28;20117;-70
2022/05/20 06:25:35;;;;;;;17.90;12.82;;;21.30;99.90;;;;;;4157468;28;20151;-70
2022/05/20 06:27:35;;;;;;;17.60;13.10;;;21.70;99.90;;;;;;4157909;28;20052;-70
2022/05/20 06:29:38;;;;;;;14.95;12.23;;;21.90;99.90;;;;;;4133927;28;20061;-70
2022/05/20 06:31:38;;;;;;;16.42;11.70;;;22.20;99.90;;;;;;4154771;28;20046;-71
2022/05/20 06:33:39;;;;;;;17.30;12.27;;;22.30;99.90;;;;;;4158120;28;20123;-71
2022/05/20 06:40:20;;;;;;;15.95;11.27;;;22.80;99.90;;;;;;4154756;28;20123;-70
2022/05/20 06:42:21;;;;;;;16.42;11.80;;;23.00;99.90;;;;;;4154967;28;20124;-68
2022/05/20 06:44:22;;;;;;;14.07;9.98;;;23.10;99.90;;;;;;4158769;28;20452;-68
2022/05/20 06:46:23;;;;;;;12.90;9.93;;;23.20;99.90;;;;;;4156501;28;20481;-68
2022/05/20 06:48:35;;;;;;;15.23;9.82;;;23.20;99.90;;;;;;4156347;28;20277;-68
2022/05/20 06:50:37;;;;;;;24.93;12.70;;;23.30;99.90;;;;;;4157102;28;20044;-68
2022/05/20 06:52:38;;;;;;;16.08;11.65;;;22.90;99.90;;;;;;4162429;28;20044;-68
2022/05/20 06:54:39;;;;;;;16.75;10.85;;;22.80;99.90;;;;;;4152547;28;20133;-68
2022/05/20 06:56:41;;;;;;;15.95;11.73;;;22.80;99.90;;;;;;4157249;28;20061;-68
2022/05/20 06:58:43;;;;;;;17.58;12.40;;;22.80;99.90;;;;;;4158911;28;20053;-70
2022/05/20 07:00:43;;;;;;;16.23;10.45;;;22.40;99.90;;;;;;4158056;28;20045;-68
2022/05/20 07:02:44;;;;;;;20.65;11.48;;;22.60;99.90;;;;;;4158557;28;20090;-69
2022/05/20 07:04:45;;;;;;;16.20;10.38;;;22.50;99.90;;;;;;4158459;28;20484;-68
2022/05/20 07:06:46;;;;;;;13.40;8.80;;;22.40;99.90;;;;;;4155851;28;20041;-68
2022/05/20 07:08:50;;;;;;;13.85;10.02;;;22.50;99.90;;;;;;4158104;28;20077;-68
2022/05/20 07:10:50;;;;;;;12.75;7.78;;;22.60;99.90;;;;;;4158433;28;20117;-68
2022/05/20 07:12:51;;;;;;;11.35;7.65;;;22.60;99.90;;;;;;4159149;28;20061;-68
2022/05/20 07:14:51;;;;;;;12.13;7.40;;;22.70;99.90;;;;;;4157063;28;20048;-68
2022/05/20 07:16:52;;;;;;;13.05;8.00;;;22.80;99.90;;;;;;4155613;28;20484;-69
2022/05/20 07:18:53;;;;;;;10.07;7.00;;;22.70;99.90;;;;;;4156782;28;20025;-69
2022/05/20 07:20:55;;;;;;;14.20;9.07;;;22.90;99.90;;;;;;4156597;28;20041;-68
2022/05/20 07:22:55;;;;;;;11.27;8.30;;;22.60;99.90;;;;;;4157643;28;20032;-68
2022/05/20 07:24:56;;;;;;;13.35;8.95;;;22.80;99.90;;;;;;4157289;28;20029;-68
2022/05/20 07:26:56;;;;;;;13.77;7.82;;;22.80;99.90;;;;;;4154652;28;20552;-70
2022/05/20 07:28:57;;;;;;;11.27;7.50;;;22.80;99.90;;;;;;4158227;28;20523;-69
2022/05/20 07:30:59;;;;;;;14.02;8.13;;;22.80;99.90;;;;;;4156427;28;20649;-68
2022/05/20 07:32:59;;;;;;;13.18;8.57;;;22.80;99.90;;;;;;4156927;28;20025;-68
2022/05/20 07:35:00;;;;;;;13.18;9.15;;;22.70;99.90;;;;;;4158171;28;20119;-69
2022/05/20 07:37:01;;;;;;;11.43;7.72;;;22.60;99.90;;;;;;4158756;28;20148;-68
2022/05/20 07:39:01;;;;;;;11.15;7.53;;;22.60;99.90;;;;;;4157517;28;20413;-68
2022/05/20 07:41:02;;;;;;;14.70;8.55;;;22.50;99.90;;;;;;4155602;28;20086;-68
2022/05/20 07:43:03;;;;;;;10.65;6.75;;;22.40;99.90;;;;;;4152966;28;20049;-68
2022/05/20 07:45:04;;;;;;;11.82;7.38;;;22.50;99.90;;;;;;4157018;28;20416;-68
2022/05/20 07:47:05;;;;;;;10.18;6.55;;;22.60;99.90;;;;;;4157448;28;20045;-68
2022/05/20 07:49:05;;;;;;;11.07;6.45;;;22.70;99.90;;;;;;4151785;28;20033;-68
2022/05/20 07:51:10;;;;;;;17.92;9.18;;;22.90;99.90;;;;;;4155520;28;20042;-68
2022/05/20 07:53:21;;;;;;;12.90;8.02;;;22.80;99.90;;;;;;4152241;28;20125;-68
2022/05/20 07:55:23;;;;;;;11.63;7.78;;;22.80;99.90;;;;;;4156360;28;20068;-68
2022/05/20 07:57:24;;;;;;;14.63;7.95;;;22.80;99.90;;;;;;4159207;28;20412;-69
2022/05/20 07:59:40;;;;;;;11.40;6.93;;;22.80;99.90;;;;;;4156696;28;20037;-68
2022/05/20 08:01:45;;;;;;;16.13;8.27;;;22.90;98.90;;;;;;4153382;28;20045;-68
2022/05/20 08:06:08;;;;;;;13.40;8.10;;;22.40;99.00;;;;;;4158019;28;20110;-68
2022/05/20 08:08:09;;;;;;;14.30;8.63;;;22.50;99.70;;;;;;4158446;28;20045;-67
2022/05/20 08:10:17;;;;;;;12.52;7.88;;;22.50;99.50;;;;;;4156492;28;20041;-69
2022/05/20 08:12:18;;;;;;;12.15;6.88;;;22.60;99.90;;;;;;4157561;28;20139;-68
2022/05/20 08:14:18;;;;;;;10.73;6.53;;;22.80;99.90;;;;;;4156179;28;20037;-68
2022/05/20 08:16:19;;;;;;;15.50;8.18;;;22.90;99.90;;;;;;4154298;28;20065;-71
2022/05/20 08:18:20;;;;;;;13.23;8.65;;;23.00;99.90;;;;;;4157628;28;20034;-71
2022/05/20 08:20:27;;;;;;;14.48;8.40;;;22.90;99.90;;;;;;4157240;28;20056;-68
2022/05/20 08:22:27;;;;;;;15.55;9.30;;;22.90;99.40;;;;;;4150407;28;20042;-70
2022/05/20 08:24:29;;;;;;;17.08;10.63;;;22.80;99.40;;;;;;4155392;28;20121;-71
2022/05/20 08:26:30;;;;;;;16.73;9.93;;;22.80;99.80;;;;;;4155149;28;20069;-71
2022/05/20 08:28:30;;;;;;;14.40;8.45;;;22.70;98.80;;;;;;4156574;28;20045;-68
2022/05/20 08:30:31;;;;;;;14.07;9.05;;;22.70;99.60;;;;;;4155510;28;20034;-68
2022/05/20 08:32:32;;;;;;;16.65;8.70;;;22.70;99.10;;;;;;4155259;28;20360;-68
2022/05/20 08:34:32;;;;;;;10.80;7.72;;;22.70;99.90;;;;;;4157445;28;20500;-68
2022/05/20 08:36:35;;;;;;;15.73;8.98;;;22.90;99.90;;;;;;4152142;28;20037;-69
2022/05/20 08:38:36;;;;;;;14.40;9.15;;;23.00;99.90;;;;;;4156658;28;20083;-68
2022/05/20 08:40:46;;;;;;;12.15;7.40;;;23.00;99.30;;;;;;4156903;28;20037;-68
2022/05/20 08:42:48;;;;;;;15.57;9.63;;;23.10;99.70;;;;;;4156607;28;20117;-68
2022/05/20 08:44:49;;;;;;;18.45;10.38;;;23.00;98.70;;;;;;4155199;28;20096;-68
2022/05/20 08:47:04;;;;;;;11.93;7.90;;;22.70;98.80;;;;;;4155071;28;20057;-68
2022/05/20 08:49:09;;;;;;;13.27;8.00;;;22.90;99.90;;;;;;4154565;28;20044;-69
2022/05/20 08:51:10;;;;;;;13.35;7.82;;;22.90;98.20;;;;;;4156347;28;20041;-68
2022/05/20 08:53:28;;;;;;;10.68;5.50;;;22.80;97.50;;;;;;4157231;28;20068;-68
2022/05/20 08:55:29;;;;;;;14.32;7.88;;;22.90;99.10;;;;;;4156253;28;20100;-70
2022/05/20 08:57:33;;;;;;;16.17;7.93;;;22.80;97.90;;;;;;4156853;28;20045;-70
2022/05/20 08:59:34;;;;;;;11.93;6.60;;;22.70;98.10;;;;;;4155379;28;20048;-68
2022/05/20 09:01:47;;;;;;;10.85;6.00;;;22.60;97.70;;;;;;4153083;28;20042;-69
2022/05/20 09:03:48;;;;;;;12.70;7.45;;;22.70;98.60;;;;;;4155169;28;20044;-69
2022/05/20 09:05:49;;;;;;;15.20;7.35;;;22.60;97.70;;;;;;4148277;28;20042;-69
2022/05/20 09:07:57;;;;;;;9.77;6.07;;;22.50;98.10;;;;;;4157223;28;20068;-69
2022/05/20 09:10:01;;;;;;;12.52;6.90;;;22.50;99.90;;;;;;4156543;28;20041;-68
2022/05/20 09:12:02;;;;;;;13.00;6.13;;;22.40;98.80;;;;;;4154151;28;20042;-69
2022/05/20 09:16:38;;;;;;;16.15;7.63;;;22.50;98.50;;;;;;4155687;28;20401;-68
2022/05/20 09:18:41;;;;;;;12.10;7.38;;;22.50;98.40;;;;;;4154768;28;20086;-68
2022/05/20 09:20:45;;;;;;;13.23;6.65;;;22.60;98.80;;;;;;4153175;28;20553;-68
2022/05/20 09:22:59;;;;;;;11.52;6.60;;;22.70;99.20;;;;;;4156578;28;20662;-68
2022/05/20 09:25:00;;;;;;;15.10;6.65;;;22.80;99.20;;;;;;4154485;28;20036;-68
2022/05/20 09:27:28;;;;;;;17.55;8.80;;;22.90;98.90;;;;;;4134442;28;20184;-70
2022/05/20 09:29:33;;;;;;;16.92;9.32;;;23.00;98.60;;;;;;4156518;28;20135;-70
2022/05/20 09:31:44;;;;;;;18.35;8.63;;;23.10;98.40;;;;;;4146877;28;20219;-71
2022/05/20 09:33:53;;;;;;;16.13;8.75;;;23.10;98.10;;;;;;4152185;28;20069;-70
2022/05/20 09:35:57;;;;;;;13.50;7.43;;;23.20;97.50;;;;;;4153687;28;20688;-70
2022/05/20 09:37:58;;;;;;;13.40;7.60;;;23.30;97.80;;;;;;4154739;28;20038;-70
2022/05/20 09:40:14;;;;;;;13.88;7.68;;;23.40;99.20;;;;;;4155744;28;20033;-70
2022/05/20 09:42:19;;;;;;;18.60;10.25;;;23.40;97.60;;;;;;4155226;28;20680;-70
2022/05/20 09:44:23;;;;;;;16.48;9.38;;;23.40;98.40;;;;;;4152722;28;20144;-70
2022/05/20 09:46:33;;;;;;;20.48;11.18;;;23.40;98.60;;;;;;4156056;28;20053;-71
2022/05/20 09:49:11;;;;;;;19.52;10.00;;;23.40;99.20;;;;;;4155514;28;20040;-71
2022/05/20 09:51:39;;;;;;;19.95;10.30;;;23.50;99.80;;;;;;4155883;28;20492;-70
2022/05/20 09:53:43;;;;;;;15.77;9.45;;;23.40;98.70;;;;;;4153172;28;20029;-70
2022/05/20 09:55:46;;;;;;;17.45;9.48;;;23.50;98.90;;;;;;4154793;28;20034;-71
2022/05/20 09:57:47;;;;;;;28.10;14.48;;;23.50;98.50;;;;;;4153631;28;20132;-71
2022/05/20 10:00:28;;;;;;;19.65;11.48;;;23.50;99.00;;;;;;4155999;28;20069;-71
2022/05/20 10:02:48;;;;;;;21.95;11.27;;;23.60;99.90;;;;;;4154372;28;20509;-71
2022/05/20 10:05:14;;;;;;;20.90;11.07;;;23.60;99.50;;;;;;4152920;28;20717;-70
2022/05/20 10:07:30;;;;;;;19.30;10.77;;;23.60;99.70;;;;;;4156147;28;20387;-71
2022/05/20 10:10:06;;;;;;;15.32;10.15;;;23.70;99.90;;;;;;4156194;28;20123;-70
2022/05/20 10:12:08;;;;;;;13.02;8.75;;;23.80;99.90;;;;;;4142094;28;20121;-70
2022/05/20 10:14:23;;;;;;;20.02;10.15;;;23.90;99.90;;;;;;4148963;28;20034;-71
2022/05/20 10:16:49;;;;;;;18.40;9.50;;;24.00;99.90;;;;;;4152081;28;20764;-70
2022/05/20 10:19:18;;;;;;;13.80;9.18;;;24.10;99.90;;;;;;4156538;28;20046;-70
2022/05/20 10:21:40;;;;;;;20.33;11.25;;;24.20;99.90;;;;;;4155100;28;20041;-70
2022/05/20 10:24:07;;;;;;;25.10;12.88;;;24.40;99.90;;;;;;4153236;28;20485;-69
2022/05/20 10:26:24;;;;;;;20.00;11.70;;;24.30;99.90;;;;;;4155074;28;20072;-69
2022/05/20 10:33:31;;;;;;;26.00;16.17;;;24.50;99.90;;;;;;4168512;28;20037;-69
2022/05/20 10:36:03;;;;;;;23.48;13.02;;;24.30;99.90;;;;;;4152328;28;20068;-69
2022/05/20 10:38:16;;;;;;;25.45;13.85;;;24.30;99.90;;;;;;4155545;28;20033;-69
2022/05/20 10:40:50;;;;;;;21.23;12.50;;;24.30;99.90;;;;;;4152742;28;20033;-69
2022/05/20 10:43:07;;;;;;;25.65;17.77;;;24.40;99.90;;;;;;4153213;28;20045;-69
2022/05/20 10:50:32;;;;;;;26.40;16.30;;;24.60;99.90;;;;;;4152743;28;20056;-70
2022/05/20 10:52:50;;;;;;;24.25;15.48;;;24.40;99.90;;;;;;4151880;28;20389;-70
2022/05/20 10:55:26;;;;;;;27.60;15.00;;;24.50;99.90;;;;;;4152879;28;20064;-69
2022/05/20 10:57:59;;;;;;;26.52;16.02;;;24.60;99.90;;;;;;4147792;28;20042;-69
2022/05/20 11:00:11;;;;;;;24.98;15.57;;;24.50;99.90;;;;;;4155033;28;20621;-69
2022/05/20 11:02:26;;;;;;;22.02;13.15;;;24.50;99.90;;;;;;4157591;28;20045;-69
2022/05/20 11:05:06;;;;;;;25.08;14.75;;;24.60;99.90;;;;;;4131423;28;20502;-69
2022/05/20 11:07:38;;;;;;;23.35;13.43;;;24.60;99.90;;;;;;4155639;28;20118;-70
2022/05/20 11:10:15;;;;;;;24.73;13.57;;;24.70;99.90;;;;;;4156598;28;20112;-70
2022/05/20 11:12:51;;;;;;;23.00;13.35;;;24.80;99.90;;;;;;4155970;28;20033;-70
2022/05/20 11:15:11;;;;;;;24.85;14.15;;;24.80;99.90;;;;;;4155939;28;20519;-70
2022/05/20 11:17:41;;;;;;;21.90;12.80;;;24.90;99.90;;;;;;4156763;28;20404;-69
2022/05/20 11:19:45;;;;;;;23.70;12.90;;;25.00;99.90;;;;;;4157858;28;20041;-69
2022/05/20 11:22:11;;;;;;;19.27;11.45;;;25.00;99.90;;;;;;4154961;28;20115;-69